deformed-offering

Nearby METAR Reports

 

KNUQ - Moffett Nas/Mtn, California, USA
Distance from station: N 9mi, 14km
Updated: Tue, 25-Apr-2017 12:56am PDT
Few Clouds
Few Clouds
 Wind from W
Wind: W 5 mph , 7 km/h
Temperature: 54°F , 12°C
Dew Point: 46°F , 8°C
Humidity: 77%
Barometer: 30.10 inHg , 1019.3 hPa
Clouds: Few Clouds
Visibility: 10 miles , 16 km
Cloud details: Few Clouds 2200 ft
2017/04/25 07:56 KNUQ 250756Z AUTO 28004KT 10SM FEW022 12/08 A3010 RMK AO2 SLP195 T01220083 401780117
KSJC - San Jose, California, USA
Distance from station: NE 9mi, 14km
Updated: Tue, 25-Apr-2017 12:53am PDT
Overcast
Overcast
 Wind from W
Wind: W 9 mph , 15 km/h
Temperature: 55°F , 13°C
Dew Point: 46°F , 8°C
Humidity: 72%
Barometer: 30.10 inHg , 1019.3 hPa
Clouds: Overcast
Visibility: 10 miles , 16 km
Cloud details: Overcast 2400 ft
2017/04/25 07:53 KSJC 250753Z AUTO 28008KT 10SM OVC024 13/08 A3010 RMK AO2 SLP191 T01280078 401780111
 
KRHV - San Jose/Reid, California, USA
Distance from station: ENE 12mi, 19km
Updated: Mon, 24-Apr-2017 9:47pm PDT
NOT Current
Overcast
Overcast
 Wind from WNW
Wind: WNW 12 mph , 19 km/h
Temperature: 55°F , 13°C
Dew Point: 48°F , 9°C
Humidity: 77%
Barometer: 30.10 inHg , 1019.3 hPa
Clouds: Overcast
Visibility: 10 miles , 16 km
Cloud details: Overcast 2800 ft
2017/04/25 04:47 KRHV 250447Z 30010KT 10SM OVC028 13/09 A3010 RMK LAST
KPAO - Palo Alto, California, USA
Distance from station: NNW 14mi, 23km
Updated: Mon, 24-Apr-2017 8:47pm PDT
NOT Current
Mostly Cloudy
Mostly Cloudy
 Wind from WNW
Wind: WNW 14 mph , 22 km/h
Temperature: 57°F , 14°C
Dew Point: 48°F , 9°C
Humidity: 72%
Barometer: 30.06 inHg , 1017.9 hPa
Clouds: Mostly Cloudy
Visibility: 10 miles , 16 km
Cloud details: Partly Cloudy 2400 ft
Mostly Cloudy 11000 ft
2017/04/25 03:47 KPAO 250347Z 30012KT 10SM SCT024 BKN110 14/09 A3006 RMK LAST
 
KSQL - San Carlos Airpo, California, USA
Distance from station: NW 21mi, 34km
Updated: Tue, 25-Apr-2017 1:15am PDT
Clear
Clear
 Wind from W
Wind: W 6 mph , 9 km/h
Temperature: 54°F , 12°C
Dew Point: 48°F , 9°C
Humidity: 82%
Barometer: 30.09 inHg , 1019 hPa
Clouds: Clear
Visibility: 10 miles , 16 km
2017/04/25 08:15 KSQL 250815Z AUTO 28005KT 10SM CLR 12/09 A3009 RMK AO2
KE16 - San Martin, California, USA
Distance from station: ESE 27mi, 43km
Updated: Tue, 25-Apr-2017 1:15am PDT
Overcast
Overcast
 Wind from NW
Wind: NW 8 mph , 13 km/h
Temperature: 52°F , 11°C
Dew Point: 46°F , 8°C
Humidity: 82%
Barometer: 30.09 inHg , 1019 hPa
Clouds: Overcast
Visibility: 10 miles , 16 km
Cloud details: Overcast 2800 ft
2017/04/25 08:15 KE16 250815Z AUTO 31007KT 10SM OVC028 11/08 A3009 RMK AO2
 
KWVI - Watsonville, California, USA
Distance from station: SSE 27mi, 44km
Updated: Tue, 25-Apr-2017 12:53am PDT
Mist, Clear
Mist, Clear
 Wind from calm
Wind: Calm
Temperature: 48°F , 9°C
Dew Point: 48°F , 9°C
Humidity: 100%
Barometer: 30.09 inHg , 1019 hPa
Summary: Mist
Clouds: Clear
Visibility: 5 miles , 8 km
2017/04/25 07:53 KWVI 250753Z AUTO 00000KT 5SM BR CLR 09/09 A3009 RMK AO2 SLP188 T00940094 401670083
KHWD - Hayward, California, USA
Distance from station: N 28mi, 44km
Updated: Tue, 25-Apr-2017 12:54am PDT
Few Clouds
Few Clouds
 Wind from WNW
Wind: WNW 3 mph , 6 km/h
Temperature: 55°F , 13°C
Dew Point: 45°F , 7°C
Humidity: 67%
Barometer: 30.08 inHg , 1018.6 hPa
Clouds: Few Clouds
Visibility: 10 miles , 16 km
Cloud details: Few Clouds 2700 ft
2017/04/25 07:54 KHWD 250754Z AUTO 29003KT 10SM FEW027 13/07 A3008 RMK AO2 SLP196 T01280067 401780122
 
KSFO - San Francisco, California, USA
Distance from station: NW 30mi, 49km
Updated: Tue, 25-Apr-2017 12:56am PDT
Few Clouds
Few Clouds
 Wind from W
Wind: W 23 mph , 37 km/h
Temperature: 54°F , 12°C
Dew Point: 48°F , 9°C
Humidity: 82%
Barometer: 30.09 inHg , 1019 hPa
Clouds: Few Clouds
Visibility: 10 miles , 16 km
Cloud details: Few Clouds 1500 ft
2017/04/25 07:56 KSFO 250756Z 28020KT 10SM FEW015 12/09 A3009 RMK AO2 PK WND 28028/0712 SLP188 T01170089 401670117
KHAF - Half Moon Bay, California, USA
Distance from station: WNW 31mi, 50km
Updated: Tue, 25-Apr-2017 1:15am PDT
Mostly Cloudy
Mostly Cloudy
 Wind from NNW
Wind: NNW 9 mph , 15 km/h
Temperature: 54°F , 12°C
Dew Point: 50°F , 10°C
Humidity: 88%
Barometer: 30.10 inHg , 1019.3 hPa
Clouds: Mostly Cloudy
Visibility: 9 miles , 14 km
Cloud details: Few Clouds 1200 ft
Mostly Cloudy 2900 ft
2017/04/25 08:15 KHAF 250815Z AUTO 34008KT 9SM FEW012 BKN029 12/10 A3010 RMK AO2
 
KOAK - Oakland, California, USA
Distance from station: NNW 31mi, 50km
Updated: Tue, 25-Apr-2017 12:53am PDT
Few Clouds
Few Clouds
 Wind from W
Wind: W 13 mph , 20 km/h
Temperature: 55°F , 13°C
Dew Point: 48°F , 9°C
Humidity: 77%
Barometer: 30.08 inHg , 1018.6 hPa
Clouds: Few Clouds
Visibility: 10 miles , 16 km
Cloud details: Few Clouds 1000 ft
2017/04/25 07:53 KOAK 250753Z 28011KT 10SM FEW010 13/09 A3008 RMK AO2 SLP186 T01330094 401830128
KLVK - Livermore, California, USA
Distance from station: NNE 31mi, 51km
Updated: Tue, 25-Apr-2017 12:53am PDT
Few Clouds
Few Clouds
 Wind from SW
Wind: SW 9 mph , 15 km/h
Temperature: 52°F , 11°C
Dew Point: 46°F , 8°C
Humidity: 82%
Barometer: 30.07 inHg , 1018.3 hPa
Clouds: Few Clouds
Visibility: 10 miles , 16 km
Cloud details: Few Clouds 2600 ft
2017/04/25 07:53 KLVK 250753Z AUTO 23008KT 10SM FEW026 11/08 A3007 RMK AO2 SLP180 T01060078 401610100 TSNO
 
KCVH - Hollister Muni, California, USA
Distance from station: SE 42mi, 68km
Updated: Tue, 25-Apr-2017 1:10am PDT
Overcast
Overcast
 Wind from W
Wind: W 5 mph , 7 km/h
Temperature: 54°F , 12°C
Dew Point: 46°F , 8°C
Humidity: 77%
Barometer: 30.09 inHg , 1019 hPa
Clouds: Overcast
Visibility: 10 miles , 16 km
Cloud details: Mostly Cloudy 2500 ft
Overcast 10000 ft
2017/04/25 08:10 KCVH 250810Z AUTO 27004KT 10SM BKN025 OVC100 12/08 A3009 RMK AO1
KSNS - Salinas, California, USA
Distance from station: SSE 48mi, 77km
Updated: Tue, 25-Apr-2017 12:53am PDT
Overcast
Overcast
 Wind from WSW
Wind: WSW 9 mph , 15 km/h
Temperature: 55°F , 13°C
Dew Point: 50°F , 10°C
Humidity: 82%
Barometer: 30.09 inHg , 1019 hPa
Clouds: Overcast
Visibility: 10 miles , 16 km
Cloud details: Overcast 2800 ft
2017/04/25 07:53 KSNS 250753Z 24008KT 10SM OVC028 13/10 A3009 RMK AO2 SLP197 T01280100 401720106
 
KMRY - Monterey, California, USA
Distance from station: SSE 49mi, 78km
Updated: Tue, 25-Apr-2017 12:54am PDT
Overcast
Overcast
 Wind from W
Wind: W 6 mph , 9 km/h
Temperature: 54°F , 12°C
Dew Point: 48°F , 9°C
Humidity: 82%
Barometer: 30.10 inHg , 1019.3 hPa
Clouds: Overcast
Visibility: 10 miles , 16 km
Cloud details: Overcast 3100 ft
2017/04/25 07:54 KMRY 250754Z 26005KT 10SM OVC031 12/09 A3010 RMK AO2 SLP204 T01220094 401720106
KCCR - Concord, California, USA
Distance from station: N 50mi, 81km
Updated: Tue, 25-Apr-2017 12:53am PDT
Clear
Clear
 Wind from S
Wind: S 7 mph , 11 km/h
Temperature: 54°F , 12°C
Dew Point: 46°F , 8°C
Humidity: 77%
Barometer: 30.07 inHg , 1018.3 hPa
Clouds: Clear
Visibility: 10 miles , 16 km
2017/04/25 07:53 KCCR 250753Z AUTO 19006KT 10SM CLR 12/08 A3007 RMK AO2 SLP168 T01220083 401720117
deformed-offering